sensor_id;sensor_type;location;lat;lon;timestamp;temperature;humidity
66026;SHT31;56312;55.976;37.136;2022-08-21T00:03:44;21.84;62.03
66026;SHT31;56312;55.976;37.136;2022-08-21T00:08:51;21.80;62.03
66026;SHT31;56312;55.976;37.136;2022-08-21T00:13:58;21.77;62.00
66026;SHT31;56312;55.976;37.136;2022-08-21T00:19:04;21.77;62.09
66026;SHT31;56312;55.976;37.136;2022-08-21T00:24:12;21.78;62.08
66026;SHT31;56312;55.976;37.136;2022-08-21T00:29:19;21.75;62.13
66026;SHT31;56312;55.976;37.136;2022-08-21T00:34:25;21.80;62.12
66026;SHT31;56312;55.976;37.136;2022-08-21T00:39:32;21.82;62.18
66026;SHT31;56312;55.976;37.136;2022-08-21T00:44:38;21.87;62.14
66026;SHT31;56312;55.976;37.136;2022-08-21T00:49:45;21.92;62.13
66026;SHT31;56312;55.976;37.136;2022-08-21T00:54:52;21.92;62.13
66026;SHT31;56312;55.976;37.136;2022-08-21T01:00:02;21.91;62.14
66026;SHT31;56312;55.976;37.136;2022-08-21T01:05:09;21.90;62.09
66026;SHT31;56312;55.976;37.136;2022-08-21T01:10:16;21.85;62.12
66026;SHT31;56312;55.976;37.136;2022-08-21T01:15:31;21.84;62.13
66026;SHT31;56312;55.976;37.136;2022-08-21T01:20:44;21.80;62.14
66026;SHT31;56312;55.976;37.136;2022-08-21T01:25:50;21.77;62.15
66026;SHT31;56312;55.976;37.136;2022-08-21T01:30:58;21.77;62.18
66026;SHT31;56312;55.976;37.136;2022-08-21T01:36:05;21.75;62.22
66026;SHT31;56312;55.976;37.136;2022-08-21T01:41:12;21.78;62.23
66026;SHT31;56312;55.976;37.136;2022-08-21T01:46:19;21.81;62.21
66026;SHT31;56312;55.976;37.136;2022-08-21T01:51:25;21.85;62.20
66026;SHT31;56312;55.976;37.136;2022-08-21T01:56:40;21.90;62.22
66026;SHT31;56312;55.976;37.136;2022-08-21T02:01:47;21.90;62.22
66026;SHT31;56312;55.976;37.136;2022-08-21T02:06:55;21.87;62.20
66026;SHT31;56312;55.976;37.136;2022-08-21T02:12:01;21.84;62.17
66026;SHT31;56312;55.976;37.136;2022-08-21T02:17:08;21.81;62.23
66026;SHT31;56312;55.976;37.136;2022-08-21T02:22:14;21.77;62.25
66026;SHT31;56312;55.976;37.136;2022-08-21T02:27:22;21.75;62.30
66026;SHT31;56312;55.976;37.136;2022-08-21T02:32:29;21.77;62.32
66026;SHT31;56312;55.976;37.136;2022-08-21T02:38:00;21.78;62.38
66026;SHT31;56312;55.976;37.136;2022-08-21T02:43:07;21.77;62.42
66026;SHT31;56312;55.976;37.136;2022-08-21T02:48:17;21.80;62.38
66026;SHT31;56312;55.976;37.136;2022-08-21T02:53:24;21.84;62.39
66026;SHT31;56312;55.976;37.136;2022-08-21T02:58:35;21.84;62.35
66026;SHT31;56312;55.976;37.136;2022-08-21T03:03:44;21.81;62.36
66026;SHT31;56312;55.976;37.136;2022-08-21T03:08:51;21.80;62.35
66026;SHT31;56312;55.976;37.136;2022-08-21T03:13:57;21.78;62.39
66026;SHT31;56312;55.976;37.136;2022-08-21T03:19:03;21.75;62.35
66026;SHT31;56312;55.976;37.136;2022-08-21T03:24:09;21.75;62.40
66026;SHT31;56312;55.976;37.136;2022-08-21T03:29:16;21.75;62.44
66026;SHT31;56312;55.976;37.136;2022-08-21T03:34:22;21.74;62.41
66026;SHT31;56312;55.976;37.136;2022-08-21T03:39:28;21.73;62.45
66026;SHT31;56312;55.976;37.136;2022-08-21T03:44:35;21.75;62.43
66026;SHT31;56312;55.976;37.136;2022-08-21T03:49:41;21.77;62.44
66026;SHT31;56312;55.976;37.136;2022-08-21T03:54:48;21.84;62.46
66026;SHT31;56312;55.976;37.136;2022-08-21T03:59:54;21.82;62.44
66026;SHT31;56312;55.976;37.136;2022-08-21T04:05:00;21.82;62.38
66026;SHT31;56312;55.976;37.136;2022-08-21T04:10:07;21.84;62.44
66026;SHT31;56312;55.976;37.136;2022-08-21T04:15:14;21.80;62.44
66026;SHT31;56312;55.976;37.136;2022-08-21T04:20:21;21.81;62.47
66026;SHT31;56312;55.976;37.136;2022-08-21T04:25:28;21.81;62.52
66026;SHT31;56312;55.976;37.136;2022-08-21T04:30:34;21.82;62.55
66026;SHT31;56312;55.976;37.136;2022-08-21T04:35:41;21.87;62.56
66026;SHT31;56312;55.976;37.136;2022-08-21T04:40:49;21.85;62.53
66026;SHT31;56312;55.976;37.136;2022-08-21T04:45:56;21.88;62.53
66026;SHT31;56312;55.976;37.136;2022-08-21T04:51:06;21.95;62.49
66026;SHT31;56312;55.976;37.136;2022-08-21T04:56:26;21.95;62.39
66026;SHT31;56312;55.976;37.136;2022-08-21T05:01:35;21.95;62.40
66026;SHT31;56312;55.976;37.136;2022-08-21T05:06:44;21.94;62.34
66026;SHT31;56312;55.976;37.136;2022-08-21T05:11:51;21.88;62.29
66026;SHT31;56312;55.976;37.136;2022-08-21T05:16:59;21.84;62.24
66026;SHT31;56312;55.976;37.136;2022-08-21T05:22:05;21.80;62.23
66026;SHT31;56312;55.976;37.136;2022-08-21T05:27:12;21.82;62.11
66026;SHT31;56312;55.976;37.136;2022-08-21T05:32:18;21.84;61.93
66026;SHT31;56312;55.976;37.136;2022-08-21T05:37:24;21.94;61.62
66026;SHT31;56312;55.976;37.136;2022-08-21T05:42:31;21.91;61.30
66026;SHT31;56312;55.976;37.136;2022-08-21T05:47:37;21.82;61.19
66026;SHT31;56312;55.976;37.136;2022-08-21T05:52:44;21.77;61.10
66026;SHT31;56312;55.976;37.136;2022-08-21T05:57:51;21.68;61.00
66026;SHT31;56312;55.976;37.136;2022-08-21T06:02:58;21.65;60.91
66026;SHT31;56312;55.976;37.136;2022-08-21T06:08:04;21.58;60.87
66026;SHT31;56312;55.976;37.136;2022-08-21T06:13:11;21.53;60.79
66026;SHT31;56312;55.976;37.136;2022-08-21T06:18:18;21.49;60.71
66026;SHT31;56312;55.976;37.136;2022-08-21T06:23:24;21.46;60.59
66026;SHT31;56312;55.976;37.136;2022-08-21T06:28:31;21.43;60.55
66026;SHT31;56312;55.976;37.136;2022-08-21T06:33:38;21.34;60.43
66026;SHT31;56312;55.976;37.136;2022-08-21T06:38:44;21.30;60.28
66026;SHT31;56312;55.976;37.136;2022-08-21T06:43:52;21.26;60.18
66026;SHT31;56312;55.976;37.136;2022-08-21T06:48:59;21.26;60.06
66026;SHT31;56312;55.976;37.136;2022-08-21T06:54:06;21.27;60.06
66026;SHT31;56312;55.976;37.136;2022-08-21T06:59:15;21.29;60.02
66026;SHT31;56312;55.976;37.136;2022-08-21T07:04:22;21.33;59.97
66026;SHT31;56312;55.976;37.136;2022-08-21T07:09:29;21.37;60.06
66026;SHT31;56312;55.976;37.136;2022-08-21T07:14:36;21.37;59.97
66026;SHT31;56312;55.976;37.136;2022-08-21T07:19:42;21.40;59.89
66026;SHT31;56312;55.976;37.136;2022-08-21T07:24:49;21.39;59.91
66026;SHT31;56312;55.976;37.136;2022-08-21T07:29:55;21.39;59.92
66026;SHT31;56312;55.976;37.136;2022-08-21T07:35:01;21.42;59.93
66026;SHT31;56312;55.976;37.136;2022-08-21T07:40:08;21.43;59.95
66026;SHT31;56312;55.976;37.136;2022-08-21T07:45:15;21.46;59.92
66026;SHT31;56312;55.976;37.136;2022-08-21T07:50:21;21.54;59.78
66026;SHT31;56312;55.976;37.136;2022-08-21T07:55:28;21.60;60.00
66026;SHT31;56312;55.976;37.136;2022-08-21T08:00:34;21.70;59.99
66026;SHT31;56312;55.976;37.136;2022-08-21T08:05:41;21.73;59.88
66026;SHT31;56312;55.976;37.136;2022-08-21T08:10:47;21.77;59.77
66026;SHT31;56312;55.976;37.136;2022-08-21T08:15:55;21.84;59.71
66026;SHT31;56312;55.976;37.136;2022-08-21T08:21:02;21.87;59.61
66026;SHT31;56312;55.976;37.136;2022-08-21T08:26:09;21.88;59.58
66026;SHT31;56312;55.976;37.136;2022-08-21T08:31:15;21.94;59.47
66026;SHT31;56312;55.976;37.136;2022-08-21T08:36:32;22.02;59.27
66026;SHT31;56312;55.976;37.136;2022-08-21T08:41:41;22.08;59.12
66026;SHT31;56312;55.976;37.136;2022-08-21T08:46:50;22.12;59.26
66026;SHT31;56312;55.976;37.136;2022-08-21T08:52:29;22.16;59.18
66026;SHT31;56312;55.976;37.136;2022-08-21T08:57:38;22.29;59.09
66026;SHT31;56312;55.976;37.136;2022-08-21T09:02:46;22.33;59.14
66026;SHT31;56312;55.976;37.136;2022-08-21T09:08:14;22.46;58.82
66026;SHT31;56312;55.976;37.136;2022-08-21T09:29:46;22.63;58.04
66026;SHT31;56312;55.976;37.136;2022-08-21T09:35:13;22.60;58.04
66026;SHT31;56312;55.976;37.136;2022-08-21T09:40:35;22.57;58.15
66026;SHT31;56312;55.976;37.136;2022-08-21T09:45:42;22.53;58.07
66026;SHT31;56312;55.976;37.136;2022-08-21T09:50:50;22.50;57.90
66026;SHT31;56312;55.976;37.136;2022-08-21T09:55:58;22.47;57.83
66026;SHT31;56312;55.976;37.136;2022-08-21T10:01:25;22.47;57.76
66026;SHT31;56312;55.976;37.136;2022-08-21T10:06:31;22.50;58.15
66026;SHT31;56312;55.976;37.136;2022-08-21T10:12:19;22.53;58.32
66026;SHT31;56312;55.976;37.136;2022-08-21T10:22:34;22.59;58.60
66026;SHT31;56312;55.976;37.136;2022-08-21T10:28:16;22.57;58.83
66026;SHT31;56312;55.976;37.136;2022-08-21T10:50:00;22.56;60.09
66026;SHT31;56312;55.976;37.136;2022-08-21T11:00:39;22.49;60.22
66026;SHT31;56312;55.976;37.136;2022-08-21T11:05:55;22.46;60.09
66026;SHT31;56312;55.976;37.136;2022-08-21T11:16:42;22.42;59.86
66026;SHT31;56312;55.976;37.136;2022-08-21T11:22:13;22.39;59.81
66026;SHT31;56312;55.976;37.136;2022-08-21T11:27:24;22.35;59.78
66026;SHT31;56312;55.976;37.136;2022-08-21T11:43:24;22.26;59.60
66026;SHT31;56312;55.976;37.136;2022-08-21T11:54:19;22.25;59.45
66026;SHT31;56312;55.976;37.136;2022-08-21T12:05:04;22.22;59.59
66026;SHT31;56312;55.976;37.136;2022-08-21T12:10:17;22.26;59.63
66026;SHT31;56312;55.976;37.136;2022-08-21T12:15:27;22.23;59.63
66026;SHT31;56312;55.976;37.136;2022-08-21T12:26:24;22.16;59.19
66026;SHT31;56312;55.976;37.136;2022-08-21T12:31:32;22.06;58.60
66026;SHT31;56312;55.976;37.136;2022-08-21T12:36:53;22.01;58.16
66026;SHT31;56312;55.976;37.136;2022-08-21T12:47:32;21.91;57.74
66026;SHT31;56312;55.976;37.136;2022-08-21T12:52:58;21.91;57.79
66026;SHT31;56312;55.976;37.136;2022-08-21T12:58:05;21.90;57.73
66026;SHT31;56312;55.976;37.136;2022-08-21T13:03:14;21.87;57.74
66026;SHT31;56312;55.976;37.136;2022-08-21T13:08:21;21.88;57.78
66026;SHT31;56312;55.976;37.136;2022-08-21T13:13:29;21.90;57.89
66026;SHT31;56312;55.976;37.136;2022-08-21T13:18:54;21.94;57.90
66026;SHT31;56312;55.976;37.136;2022-08-21T13:29:29;22.05;57.85
66026;SHT31;56312;55.976;37.136;2022-08-21T13:34:37;22.05;57.85
66026;SHT31;56312;55.976;37.136;2022-08-21T13:39:51;22.02;57.92
66026;SHT31;56312;55.976;37.136;2022-08-21T13:44:58;22.00;57.88
66026;SHT31;56312;55.976;37.136;2022-08-21T13:50:05;21.95;57.97
66026;SHT31;56312;55.976;37.136;2022-08-21T13:55:16;21.95;57.99
66026;SHT31;56312;55.976;37.136;2022-08-21T14:00:29;21.90;58.00
66026;SHT31;56312;55.976;37.136;2022-08-21T14:05:44;21.91;58.00
66026;SHT31;56312;55.976;37.136;2022-08-21T14:10:51;21.90;58.06
66026;SHT31;56312;55.976;37.136;2022-08-21T14:15:59;21.95;58.07
66026;SHT31;56312;55.976;37.136;2022-08-21T14:21:09;22.04;58.32
66026;SHT31;56312;55.976;37.136;2022-08-21T14:26:17;22.09;58.62
66026;SHT31;56312;55.976;37.136;2022-08-21T14:31:29;22.26;58.92
66026;SHT31;56312;55.976;37.136;2022-08-21T14:36:36;22.32;58.81
66026;SHT31;56312;55.976;37.136;2022-08-21T14:41:44;22.25;58.70
66026;SHT31;56312;55.976;37.136;2022-08-21T14:46:53;22.22;58.65
66026;SHT31;56312;55.976;37.136;2022-08-21T14:51:59;22.40;58.50
66026;SHT31;56312;55.976;37.136;2022-08-21T14:57:08;22.38;58.13
66026;SHT31;56312;55.976;37.136;2022-08-21T15:02:15;22.26;58.12
66026;SHT31;56312;55.976;37.136;2022-08-21T15:07:21;22.19;58.00
66026;SHT31;56312;55.976;37.136;2022-08-21T15:12:27;22.13;58.08
66026;SHT31;56312;55.976;37.136;2022-08-21T15:17:35;22.06;57.98
66026;SHT31;56312;55.976;37.136;2022-08-21T15:22:41;22.06;58.02
66026;SHT31;56312;55.976;37.136;2022-08-21T15:27:48;22.05;57.88
66026;SHT31;56312;55.976;37.136;2022-08-21T15:32:54;22.02;57.85
66026;SHT31;56312;55.976;37.136;2022-08-21T15:38:01;22.05;57.78
66026;SHT31;56312;55.976;37.136;2022-08-21T15:43:23;22.22;57.72
66026;SHT31;56312;55.976;37.136;2022-08-21T15:48:31;22.11;57.60
66026;SHT31;56312;55.976;37.136;2022-08-21T15:53:37;22.02;57.54
66026;SHT31;56312;55.976;37.136;2022-08-21T15:58:45;21.95;57.54
66026;SHT31;56312;55.976;37.136;2022-08-21T16:03:53;21.87;57.44
66026;SHT31;56312;55.976;37.136;2022-08-21T16:09:00;21.78;57.44
66026;SHT31;56312;55.976;37.136;2022-08-21T16:14:06;21.70;57.32
66026;SHT31;56312;55.976;37.136;2022-08-21T16:19:13;21.68;57.28
66026;SHT31;56312;55.976;37.136;2022-08-21T16:24:20;21.67;57.19
66026;SHT31;56312;55.976;37.136;2022-08-21T16:29:34;21.65;57.11
66026;SHT31;56312;55.976;37.136;2022-08-21T16:34:44;21.61;57.04
66026;SHT31;56312;55.976;37.136;2022-08-21T16:39:52;21.60;56.99
66026;SHT31;56312;55.976;37.136;2022-08-21T16:44:58;21.63;56.95
66026;SHT31;56312;55.976;37.136;2022-08-21T16:50:05;21.67;56.98
66026;SHT31;56312;55.976;37.136;2022-08-21T16:55:12;21.73;56.92
66026;SHT31;56312;55.976;37.136;2022-08-21T17:00:18;21.73;56.85
66026;SHT31;56312;55.976;37.136;2022-08-21T17:05:25;21.64;56.89
66026;SHT31;56312;55.976;37.136;2022-08-21T17:10:31;21.54;56.86
66026;SHT31;56312;55.976;37.136;2022-08-21T17:15:38;21.49;56.87
66026;SHT31;56312;55.976;37.136;2022-08-21T17:20:45;21.47;56.91
66026;SHT31;56312;55.976;37.136;2022-08-21T17:25:53;21.46;56.87
66026;SHT31;56312;55.976;37.136;2022-08-21T17:31:00;21.47;56.89
66026;SHT31;56312;55.976;37.136;2022-08-21T17:36:08;21.49;56.94
66026;SHT31;56312;55.976;37.136;2022-08-21T17:41:14;21.49;56.95
66026;SHT31;56312;55.976;37.136;2022-08-21T17:46:26;21.51;56.94
66026;SHT31;56312;55.976;37.136;2022-08-21T17:51:33;21.49;56.98
66026;SHT31;56312;55.976;37.136;2022-08-21T18:01:47;21.43;56.96
66026;SHT31;56312;55.976;37.136;2022-08-21T18:06:54;21.43;56.93
66026;SHT31;56312;55.976;37.136;2022-08-21T18:12:00;21.39;56.96
66026;SHT31;56312;55.976;37.136;2022-08-21T18:17:12;21.37;56.99
66026;SHT31;56312;55.976;37.136;2022-08-21T18:22:19;21.36;57.02
66026;SHT31;56312;55.976;37.136;2022-08-21T18:27:25;21.34;57.16
66026;SHT31;56312;55.976;37.136;2022-08-21T18:32:32;21.37;57.15
66026;SHT31;56312;55.976;37.136;2022-08-21T18:37:40;21.39;57.18
66026;SHT31;56312;55.976;37.136;2022-08-21T18:42:47;21.39;57.21
66026;SHT31;56312;55.976;37.136;2022-08-21T18:47:55;21.40;57.19
66026;SHT31;56312;55.976;37.136;2022-08-21T18:53:03;21.50;57.15
66026;SHT31;56312;55.976;37.136;2022-08-21T18:58:12;21.73;57.12
66026;SHT31;56312;55.976;37.136;2022-08-21T19:03:20;21.80;57.08
66026;SHT31;56312;55.976;37.136;2022-08-21T19:08:27;21.75;57.11
66026;SHT31;56312;55.976;37.136;2022-08-21T19:13:34;21.73;57.19
66026;SHT31;56312;55.976;37.136;2022-08-21T19:18:41;21.70;57.32
66026;SHT31;56312;55.976;37.136;2022-08-21T19:23:47;21.70;57.36
66026;SHT31;56312;55.976;37.136;2022-08-21T19:28:58;21.71;57.46
66026;SHT31;56312;55.976;37.136;2022-08-21T19:34:13;21.74;57.50
66026;SHT31;56312;55.976;37.136;2022-08-21T19:39:20;21.78;57.42
66026;SHT31;56312;55.976;37.136;2022-08-21T19:44:28;21.80;57.41
66026;SHT31;56312;55.976;37.136;2022-08-21T19:49:41;21.73;57.28
66026;SHT31;56312;55.976;37.136;2022-08-21T19:54:48;21.70;57.26
66026;SHT31;56312;55.976;37.136;2022-08-21T19:59:55;21.63;57.17
66026;SHT31;56312;55.976;37.136;2022-08-21T20:05:02;21.55;57.13
66026;SHT31;56312;55.976;37.136;2022-08-21T20:10:09;21.50;57.10
66026;SHT31;56312;55.976;37.136;2022-08-21T20:15:19;21.47;57.10
66026;SHT31;56312;55.976;37.136;2022-08-21T20:20:26;21.51;57.16
66026;SHT31;56312;55.976;37.136;2022-08-21T20:25:34;21.50;57.17
66026;SHT31;56312;55.976;37.136;2022-08-21T20:30:41;21.53;57.23
66026;SHT31;56312;55.976;37.136;2022-08-21T20:35:49;21.53;57.18
66026;SHT31;56312;55.976;37.136;2022-08-21T20:40:57;21.55;57.21
66026;SHT31;56312;55.976;37.136;2022-08-21T20:51:20;21.75;57.46
66026;SHT31;56312;55.976;37.136;2022-08-21T20:56:55;21.77;57.42
66026;SHT31;56312;55.976;37.136;2022-08-21T21:13:07;21.75;57.64
66026;SHT31;56312;55.976;37.136;2022-08-21T21:18:44;21.75;57.70
66026;SHT31;56312;55.976;37.136;2022-08-21T21:24:39;21.75;57.77
66026;SHT31;56312;55.976;37.136;2022-08-21T21:29:44;21.84;57.84
66026;SHT31;56312;55.976;37.136;2022-08-21T21:34:51;21.90;57.83
66026;SHT31;56312;55.976;37.136;2022-08-21T21:46:00;21.97;57.87
66026;SHT31;56312;55.976;37.136;2022-08-21T21:51:28;22.00;57.96
66026;SHT31;56312;55.976;37.136;2022-08-21T22:08:14;22.01;57.94
66026;SHT31;56312;55.976;37.136;2022-08-21T22:13:50;21.97;58.03
66026;SHT31;56312;55.976;37.136;2022-08-21T22:19:12;21.97;58.11
66026;SHT31;56312;55.976;37.136;2022-08-21T22:24:26;21.94;58.15
66026;SHT31;56312;55.976;37.136;2022-08-21T22:29:49;22.00;58.17
66026;SHT31;56312;55.976;37.136;2022-08-21T22:35:18;22.06;58.24
66026;SHT31;56312;55.976;37.136;2022-08-21T22:40:29;22.11;58.22
66026;SHT31;56312;55.976;37.136;2022-08-21T22:45:54;22.16;58.25
66026;SHT31;56312;55.976;37.136;2022-08-21T22:51:06;22.16;58.27
66026;SHT31;56312;55.976;37.136;2022-08-21T22:56:45;22.15;58.30
66026;SHT31;56312;55.976;37.136;2022-08-21T23:01:58;22.11;58.29
66026;SHT31;56312;55.976;37.136;2022-08-21T23:07:04;22.06;58.34
66026;SHT31;56312;55.976;37.136;2022-08-21T23:12:27;22.02;58.38
66026;SHT31;56312;55.976;37.136;2022-08-21T23:18:25;22.00;58.40
66026;SHT31;56312;55.976;37.136;2022-08-21T23:23:23;21.95;58.48
66026;SHT31;56312;55.976;37.136;2022-08-21T23:34:35;21.98;58.39
66026;SHT31;56312;55.976;37.136;2022-08-21T23:50:55;22.02;58.59
